sensor_id;sensor_type;location;lat;lon;timestamp;temperature;humidity
25949;DHT22;13961;51.178;4.448;2022-07-23T00:00:17;17.70;99.90
25949;DHT22;13961;51.178;4.448;2022-07-23T00:02:43;17.70;99.90
25949;DHT22;13961;51.178;4.448;2022-07-23T00:05:09;17.70;99.90
25949;DHT22;13961;51.178;4.448;2022-07-23T00:07:35;17.70;99.90
25949;DHT22;13961;51.178;4.448;2022-07-23T00:10:00;17.80;99.90
25949;DHT22;13961;51.178;4.448;2022-07-23T00:12:26;17.80;99.90
25949;DHT22;13961;51.178;4.448;2022-07-23T00:14:52;17.70;99.90
25949;DHT22;13961;51.178;4.448;2022-07-23T00:17:18;17.60;99.90
25949;DHT22;13961;51.178;4.448;2022-07-23T00:19:43;17.50;99.90
25949;DHT22;13961;51.178;4.448;2022-07-23T00:22:09;17.40;99.90
25949;DHT22;13961;51.178;4.448;2022-07-23T00:24:35;17.40;99.90
25949;DHT22;13961;51.178;4.448;2022-07-23T00:27:00;17.30;99.90
25949;DHT22;13961;51.178;4.448;2022-07-23T00:29:26;17.30;99.90
25949;DHT22;13961;51.178;4.448;2022-07-23T00:31:51;17.30;99.90
25949;DHT22;13961;51.178;4.448;2022-07-23T00:34:17;17.40;99.90
25949;DHT22;13961;51.178;4.448;2022-07-23T00:36:43;17.20;99.90
25949;DHT22;13961;51.178;4.448;2022-07-23T00:39:08;17.30;99.90
25949;DHT22;13961;51.178;4.448;2022-07-23T00:41:34;17.30;99.90
25949;DHT22;13961;51.178;4.448;2022-07-23T00:46:50;17.30;99.90
25949;DHT22;13961;51.178;4.448;2022-07-23T00:49:18;17.20;99.90
25949;DHT22;13961;51.178;4.448;2022-07-23T00:51:44;17.10;99.90
25949;DHT22;13961;51.178;4.448;2022-07-23T00:54:10;17.00;99.90
25949;DHT22;13961;51.178;4.448;2022-07-23T00:56:37;17.00;99.90
25949;DHT22;13961;51.178;4.448;2022-07-23T00:59:03;17.10;99.90
25949;DHT22;13961;51.178;4.448;2022-07-23T01:01:29;17.00;99.90
25949;DHT22;13961;51.178;4.448;2022-07-23T01:03:54;16.90;99.90
25949;DHT22;13961;51.178;4.448;2022-07-23T01:06:20;16.90;99.90
25949;DHT22;13961;51.178;4.448;2022-07-23T01:08:45;16.90;99.90
25949;DHT22;13961;51.178;4.448;2022-07-23T01:11:11;16.90;99.90
25949;DHT22;13961;51.178;4.448;2022-07-23T01:13:42;16.90;99.90
25949;DHT22;13961;51.178;4.448;2022-07-23T01:16:08;16.80;99.90
25949;DHT22;13961;51.178;4.448;2022-07-23T01:18:33;16.80;99.90
25949;DHT22;13961;51.178;4.448;2022-07-23T01:20:59;16.80;99.90
25949;DHT22;13961;51.178;4.448;2022-07-23T01:23:24;16.90;99.90
25949;DHT22;13961;51.178;4.448;2022-07-23T01:25:54;16.90;99.90
25949;DHT22;13961;51.178;4.448;2022-07-23T01:28:20;16.90;99.90
25949;DHT22;13961;51.178;4.448;2022-07-23T01:30:46;17.00;99.90
25949;DHT22;13961;51.178;4.448;2022-07-23T01:33:12;16.90;99.90
25949;DHT22;13961;51.178;4.448;2022-07-23T01:35:38;16.90;99.90
25949;DHT22;13961;51.178;4.448;2022-07-23T01:38:03;16.90;99.90
25949;DHT22;13961;51.178;4.448;2022-07-23T01:40:29;16.90;99.90
25949;DHT22;13961;51.178;4.448;2022-07-23T01:42:55;16.90;99.90
25949;DHT22;13961;51.178;4.448;2022-07-23T01:45:20;16.80;99.90
25949;DHT22;13961;51.178;4.448;2022-07-23T01:47:46;16.70;99.90
25949;DHT22;13961;51.178;4.448;2022-07-23T01:50:12;16.70;99.90
25949;DHT22;13961;51.178;4.448;2022-07-23T01:52:38;16.60;99.90
25949;DHT22;13961;51.178;4.448;2022-07-23T01:55:04;16.60;99.90
25949;DHT22;13961;51.178;4.448;2022-07-23T01:57:31;16.80;99.90
25949;DHT22;13961;51.178;4.448;2022-07-23T01:59:57;16.80;99.90
25949;DHT22;13961;51.178;4.448;2022-07-23T02:02:22;16.70;99.90
25949;DHT22;13961;51.178;4.448;2022-07-23T02:04:48;16.70;99.90
25949;DHT22;13961;51.178;4.448;2022-07-23T02:07:13;16.70;99.90
25949;DHT22;13961;51.178;4.448;2022-07-23T02:09:39;16.70;99.90
25949;DHT22;13961;51.178;4.448;2022-07-23T02:12:05;16.50;99.90
25949;DHT22;13961;51.178;4.448;2022-07-23T02:14:30;16.50;99.90
25949;DHT22;13961;51.178;4.448;2022-07-23T02:16:56;16.60;99.90
25949;DHT22;13961;51.178;4.448;2022-07-23T02:19:22;16.60;99.90
25949;DHT22;13961;51.178;4.448;2022-07-23T02:21:48;16.60;99.90
25949;DHT22;13961;51.178;4.448;2022-07-23T02:24:13;16.60;99.90
25949;DHT22;13961;51.178;4.448;2022-07-23T02:26:39;16.60;99.90
25949;DHT22;13961;51.178;4.448;2022-07-23T02:29:05;16.60;99.90
25949;DHT22;13961;51.178;4.448;2022-07-23T02:31:30;16.60;99.90
25949;DHT22;13961;51.178;4.448;2022-07-23T02:33:56;16.50;99.90
25949;DHT22;13961;51.178;4.448;2022-07-23T02:36:22;16.50;99.90
25949;DHT22;13961;51.178;4.448;2022-07-23T02:38:48;16.50;99.90
25949;DHT22;13961;51.178;4.448;2022-07-23T02:41:13;16.50;99.90
25949;DHT22;13961;51.178;4.448;2022-07-23T02:43:39;16.50;99.90
25949;DHT22;13961;51.178;4.448;2022-07-23T02:46:05;16.40;99.90
25949;DHT22;13961;51.178;4.448;2022-07-23T02:48:30;16.40;99.90
25949;DHT22;13961;51.178;4.448;2022-07-23T02:50:56;16.50;99.90
25949;DHT22;13961;51.178;4.448;2022-07-23T02:53:23;16.50;99.90
25949;DHT22;13961;51.178;4.448;2022-07-23T02:55:49;16.40;99.90
25949;DHT22;13961;51.178;4.448;2022-07-23T02:58:14;16.30;99.90
25949;DHT22;13961;51.178;4.448;2022-07-23T03:00:40;16.30;99.90
25949;DHT22;13961;51.178;4.448;2022-07-23T03:03:05;16.40;99.90
25949;DHT22;13961;51.178;4.448;2022-07-23T03:05:33;16.20;99.90
25949;DHT22;13961;51.178;4.448;2022-07-23T03:07:58;16.10;99.90
25949;DHT22;13961;51.178;4.448;2022-07-23T03:10:24;16.00;99.90
25949;DHT22;13961;51.178;4.448;2022-07-23T03:12:50;16.00;99.90
25949;DHT22;13961;51.178;4.448;2022-07-23T03:15:15;16.00;99.90
25949;DHT22;13961;51.178;4.448;2022-07-23T03:17:41;16.00;99.90
25949;DHT22;13961;51.178;4.448;2022-07-23T03:20:08;16.00;99.90
25949;DHT22;13961;51.178;4.448;2022-07-23T03:22:34;16.00;99.90
25949;DHT22;13961;51.178;4.448;2022-07-23T03:24:59;15.90;99.90
25949;DHT22;13961;51.178;4.448;2022-07-23T03:27:27;15.90;99.90
25949;DHT22;13961;51.178;4.448;2022-07-23T03:29:54;15.90;99.90
25949;DHT22;13961;51.178;4.448;2022-07-23T03:32:21;15.90;99.90
25949;DHT22;13961;51.178;4.448;2022-07-23T03:34:47;15.80;99.90
25949;DHT22;13961;51.178;4.448;2022-07-23T03:37:13;15.80;99.90
25949;DHT22;13961;51.178;4.448;2022-07-23T03:39:40;15.80;99.90
25949;DHT22;13961;51.178;4.448;2022-07-23T03:42:06;15.80;99.90
25949;DHT22;13961;51.178;4.448;2022-07-23T03:44:32;15.80;99.90
25949;DHT22;13961;51.178;4.448;2022-07-23T03:46:58;15.90;99.90
25949;DHT22;13961;51.178;4.448;2022-07-23T03:49:24;15.90;99.90
25949;DHT22;13961;51.178;4.448;2022-07-23T03:51:50;15.80;99.90
25949;DHT22;13961;51.178;4.448;2022-07-23T03:54:15;15.70;99.90
25949;DHT22;13961;51.178;4.448;2022-07-23T03:56:41;15.70;99.90
25949;DHT22;13961;51.178;4.448;2022-07-23T03:59:08;15.70;99.90
25949;DHT22;13961;51.178;4.448;2022-07-23T04:01:34;15.70;99.90
25949;DHT22;13961;51.178;4.448;2022-07-23T04:03:59;15.80;99.90
25949;DHT22;13961;51.178;4.448;2022-07-23T04:06:25;15.70;99.90
25949;DHT22;13961;51.178;4.448;2022-07-23T04:08:51;15.70;99.90
25949;DHT22;13961;51.178;4.448;2022-07-23T04:11:16;15.70;99.90
25949;DHT22;13961;51.178;4.448;2022-07-23T04:13:42;15.70;99.90
25949;DHT22;13961;51.178;4.448;2022-07-23T04:16:08;15.60;99.90
25949;DHT22;13961;51.178;4.448;2022-07-23T04:18:33;15.60;99.90
25949;DHT22;13961;51.178;4.448;2022-07-23T04:20:59;15.70;99.90
25949;DHT22;13961;51.178;4.448;2022-07-23T04:23:24;15.80;99.90
25949;DHT22;13961;51.178;4.448;2022-07-23T04:25:50;15.80;99.90
25949;DHT22;13961;51.178;4.448;2022-07-23T04:28:16;15.90;99.90
25949;DHT22;13961;51.178;4.448;2022-07-23T04:30:41;15.90;99.90
25949;DHT22;13961;51.178;4.448;2022-07-23T04:33:07;15.90;99.90
25949;DHT22;13961;51.178;4.448;2022-07-23T04:35:36;15.90;99.90
25949;DHT22;13961;51.178;4.448;2022-07-23T04:38:03;16.00;99.90
25949;DHT22;13961;51.178;4.448;2022-07-23T04:40:29;15.90;99.90
25949;DHT22;13961;51.178;4.448;2022-07-23T04:42:56;16.10;99.90
25949;DHT22;13961;51.178;4.448;2022-07-23T04:45:22;16.10;99.90
25949;DHT22;13961;51.178;4.448;2022-07-23T04:47:50;16.20;99.90
25949;DHT22;13961;51.178;4.448;2022-07-23T04:50:15;16.30;99.90
25949;DHT22;13961;51.178;4.448;2022-07-23T04:52:44;16.30;99.90
25949;DHT22;13961;51.178;4.448;2022-07-23T04:55:10;16.50;99.90
25949;DHT22;13961;51.178;4.448;2022-07-23T04:57:36;16.60;99.90
25949;DHT22;13961;51.178;4.448;2022-07-23T05:00:03;16.60;99.90
25949;DHT22;13961;51.178;4.448;2022-07-23T05:02:28;16.60;99.90
25949;DHT22;13961;51.178;4.448;2022-07-23T05:04:54;16.60;99.90
25949;DHT22;13961;51.178;4.448;2022-07-23T05:07:20;16.60;99.90
25949;DHT22;13961;51.178;4.448;2022-07-23T05:09:45;16.70;99.90
25949;DHT22;13961;51.178;4.448;2022-07-23T05:12:11;16.80;99.90
25949;DHT22;13961;51.178;4.448;2022-07-23T05:14:37;16.90;99.90
25949;DHT22;13961;51.178;4.448;2022-07-23T05:17:02;16.90;99.90
25949;DHT22;13961;51.178;4.448;2022-07-23T05:19:28;17.00;99.90
25949;DHT22;13961;51.178;4.448;2022-07-23T05:21:54;17.10;99.90
25949;DHT22;13961;51.178;4.448;2022-07-23T05:24:19;17.30;99.90
25949;DHT22;13961;51.178;4.448;2022-07-23T05:26:45;17.30;99.90
25949;DHT22;13961;51.178;4.448;2022-07-23T05:29:10;17.10;99.90
25949;DHT22;13961;51.178;4.448;2022-07-23T05:31:36;17.00;99.90
25949;DHT22;13961;51.178;4.448;2022-07-23T05:34:02;17.20;99.90
25949;DHT22;13961;51.178;4.448;2022-07-23T05:36:28;17.30;99.90
25949;DHT22;13961;51.178;4.448;2022-07-23T05:38:53;17.50;99.90
25949;DHT22;13961;51.178;4.448;2022-07-23T05:41:19;17.60;99.90
25949;DHT22;13961;51.178;4.448;2022-07-23T05:43:44;17.70;99.90
25949;DHT22;13961;51.178;4.448;2022-07-23T05:46:11;17.80;99.90
25949;DHT22;13961;51.178;4.448;2022-07-23T05:48:37;17.80;99.90
25949;DHT22;13961;51.178;4.448;2022-07-23T05:51:02;17.70;99.90
25949;DHT22;13961;51.178;4.448;2022-07-23T05:53:32;17.70;99.90
25949;DHT22;13961;51.178;4.448;2022-07-23T05:55:57;17.60;99.90
25949;DHT22;13961;51.178;4.448;2022-07-23T05:58:23;17.70;99.90
25949;DHT22;13961;51.178;4.448;2022-07-23T06:00:48;17.50;99.90
25949;DHT22;13961;51.178;4.448;2022-07-23T06:03:14;17.40;99.90
25949;DHT22;13961;51.178;4.448;2022-07-23T06:05:40;17.60;99.90
25949;DHT22;13961;51.178;4.448;2022-07-23T06:08:06;17.80;99.90
25949;DHT22;13961;51.178;4.448;2022-07-23T06:10:31;17.80;99.90
25949;DHT22;13961;51.178;4.448;2022-07-23T06:12:57;17.80;99.90
25949;DHT22;13961;51.178;4.448;2022-07-23T06:15:23;17.70;99.90
25949;DHT22;13961;51.178;4.448;2022-07-23T06:17:48;17.50;99.90
25949;DHT22;13961;51.178;4.448;2022-07-23T06:20:14;17.30;99.90
25949;DHT22;13961;51.178;4.448;2022-07-23T06:22:40;17.30;99.90
25949;DHT22;13961;51.178;4.448;2022-07-23T06:25:06;17.50;99.90
25949;DHT22;13961;51.178;4.448;2022-07-23T06:27:32;17.70;99.90
25949;DHT22;13961;51.178;4.448;2022-07-23T06:29:58;18.10;99.90
25949;DHT22;13961;51.178;4.448;2022-07-23T06:32:23;18.30;99.90
25949;DHT22;13961;51.178;4.448;2022-07-23T06:34:49;18.40;99.90
25949;DHT22;13961;51.178;4.448;2022-07-23T06:37:15;18.50;99.90
25949;DHT22;13961;51.178;4.448;2022-07-23T06:39:40;18.60;99.90
25949;DHT22;13961;51.178;4.448;2022-07-23T06:42:06;19.30;99.90
25949;DHT22;13961;51.178;4.448;2022-07-23T06:44:31;20.90;99.90
25949;DHT22;13961;51.178;4.448;2022-07-23T06:46:57;23.10;99.90
25949;DHT22;13961;51.178;4.448;2022-07-23T06:49:23;24.40;99.90
25949;DHT22;13961;51.178;4.448;2022-07-23T06:51:48;25.90;99.90
25949;DHT22;13961;51.178;4.448;2022-07-23T06:54:14;27.10;99.90
25949;DHT22;13961;51.178;4.448;2022-07-23T06:56:39;27.40;99.90
25949;DHT22;13961;51.178;4.448;2022-07-23T06:59:05;27.80;99.90
25949;DHT22;13961;51.178;4.448;2022-07-23T07:01:31;27.10;99.90
25949;DHT22;13961;51.178;4.448;2022-07-23T07:03:57;27.40;99.90
25949;DHT22;13961;51.178;4.448;2022-07-23T07:06:22;28.70;99.90
25949;DHT22;13961;51.178;4.448;2022-07-23T07:08:48;29.20;99.30
25949;DHT22;13961;51.178;4.448;2022-07-23T07:11:14;29.50;98.50
25949;DHT22;13961;51.178;4.448;2022-07-23T07:13:39;30.10;97.90
25949;DHT22;13961;51.178;4.448;2022-07-23T07:16:05;29.90;96.80
25949;DHT22;13961;51.178;4.448;2022-07-23T07:18:31;28.50;98.80
25949;DHT22;13961;51.178;4.448;2022-07-23T07:20:57;29.20;98.00
25949;DHT22;13961;51.178;4.448;2022-07-23T07:23:23;28.70;98.40
25949;DHT22;13961;51.178;4.448;2022-07-23T07:25:49;29.60;97.50
25949;DHT22;13961;51.178;4.448;2022-07-23T07:28:14;29.60;97.70
25949;DHT22;13961;51.178;4.448;2022-07-23T07:30:40;30.30;96.50
25949;DHT22;13961;51.178;4.448;2022-07-23T07:33:06;30.50;95.50
25949;DHT22;13961;51.178;4.448;2022-07-23T07:35:31;29.30;96.80
25949;DHT22;13961;51.178;4.448;2022-07-23T07:37:58;29.60;97.00
25949;DHT22;13961;51.178;4.448;2022-07-23T07:40:24;30.70;95.30
25949;DHT22;13961;51.178;4.448;2022-07-23T07:42:52;31.60;94.20
25949;DHT22;13961;51.178;4.448;2022-07-23T07:45:20;32.20;93.30
25949;DHT22;13961;51.178;4.448;2022-07-23T07:47:47;31.00;94.20
25949;DHT22;13961;51.178;4.448;2022-07-23T07:50:12;31.20;94.30
25949;DHT22;13961;51.178;4.448;2022-07-23T07:52:38;30.70;93.90
25949;DHT22;13961;51.178;4.448;2022-07-23T07:55:05;30.60;94.50
25949;DHT22;13961;51.178;4.448;2022-07-23T07:57:31;30.10;94.90
25949;DHT22;13961;51.178;4.448;2022-07-23T07:59:57;30.40;94.80
25949;DHT22;13961;51.178;4.448;2022-07-23T08:02:23;30.60;94.00
25949;DHT22;13961;51.178;4.448;2022-07-23T08:04:49;30.00;94.60
25949;DHT22;13961;51.178;4.448;2022-07-23T08:07:15;30.70;94.70
25949;DHT22;13961;51.178;4.448;2022-07-23T08:09:41;31.00;94.00
25949;DHT22;13961;51.178;4.448;2022-07-23T08:12:07;29.60;94.60
25949;DHT22;13961;51.178;4.448;2022-07-23T08:14:32;30.00;94.30
25949;DHT22;13961;51.178;4.448;2022-07-23T08:16:58;31.20;93.20
25949;DHT22;13961;51.178;4.448;2022-07-23T08:19:24;31.70;92.00
25949;DHT22;13961;51.178;4.448;2022-07-23T08:21:49;31.60;92.40
25949;DHT22;13961;51.178;4.448;2022-07-23T08:24:15;31.80;91.70
25949;DHT22;13961;51.178;4.448;2022-07-23T08:26:41;32.50;91.00
25949;DHT22;13961;51.178;4.448;2022-07-23T08:29:06;32.30;90.40
25949;DHT22;13961;51.178;4.448;2022-07-23T08:31:32;32.30;89.60
25949;DHT22;13961;51.178;4.448;2022-07-23T08:33:59;32.00;90.70
25949;DHT22;13961;51.178;4.448;2022-07-23T08:36:25;31.20;90.10
25949;DHT22;13961;51.178;4.448;2022-07-23T08:38:54;31.20;90.70
25949;DHT22;13961;51.178;4.448;2022-07-23T08:41:20;32.20;89.30
25949;DHT22;13961;51.178;4.448;2022-07-23T08:43:46;32.20;89.30
25949;DHT22;13961;51.178;4.448;2022-07-23T08:46:13;32.00;90.00
25949;DHT22;13961;51.178;4.448;2022-07-23T08:48:39;31.80;85.30
25949;DHT22;13961;51.178;4.448;2022-07-23T08:51:06;31.40;84.90
25949;DHT22;13961;51.178;4.448;2022-07-23T08:53:33;30.90;89.60
25949;DHT22;13961;51.178;4.448;2022-07-23T08:56:02;31.40;89.20
25949;DHT22;13961;51.178;4.448;2022-07-23T08:58:28;32.00;88.90
25949;DHT22;13961;51.178;4.448;2022-07-23T09:00:54;32.70;86.80
25949;DHT22;13961;51.178;4.448;2022-07-23T09:03:24;32.50;86.60
25949;DHT22;13961;51.178;4.448;2022-07-23T09:05:53;32.80;86.70
25949;DHT22;13961;51.178;4.448;2022-07-23T09:08:25;32.30;83.40
25949;DHT22;13961;51.178;4.448;2022-07-23T09:10:57;30.80;88.00
25949;DHT22;13961;51.178;4.448;2022-07-23T09:16:09;30.50;86.40
25949;DHT22;13961;51.178;4.448;2022-07-23T09:18:39;30.90;84.80
25949;DHT22;13961;51.178;4.448;2022-07-23T09:26:22;31.60;83.60
25949;DHT22;13961;51.178;4.448;2022-07-23T09:29:09;30.90;86.20
25949;DHT22;13961;51.178;4.448;2022-07-23T09:31:50;31.40;84.30
25949;DHT22;13961;51.178;4.448;2022-07-23T09:34:24;31.20;85.50
25949;DHT22;13961;51.178;4.448;2022-07-23T09:36:53;30.80;84.10
25949;DHT22;13961;51.178;4.448;2022-07-23T09:39:26;28.80;88.00
25949;DHT22;13961;51.178;4.448;2022-07-23T09:41:52;27.80;90.80
25949;DHT22;13961;51.178;4.448;2022-07-23T09:44:20;27.40;90.80
25949;DHT22;13961;51.178;4.448;2022-07-23T09:46:48;26.70;93.00
25949;DHT22;13961;51.178;4.448;2022-07-23T09:49:21;26.30;93.60
25949;DHT22;13961;51.178;4.448;2022-07-23T09:51:54;26.60;94.20
25949;DHT22;13961;51.178;4.448;2022-07-23T09:54:29;26.00;93.70
25949;DHT22;13961;51.178;4.448;2022-07-23T09:59:37;24.90;95.80
25949;DHT22;13961;51.178;4.448;2022-07-23T10:02:04;24.50;96.70
25949;DHT22;13961;51.178;4.448;2022-07-23T10:04:32;24.80;98.40
25949;DHT22;13961;51.178;4.448;2022-07-23T10:07:00;25.40;96.20
25949;DHT22;13961;51.178;4.448;2022-07-23T10:09:30;26.00;95.70
25949;DHT22;13961;51.178;4.448;2022-07-23T10:11:58;26.10;95.40
25949;DHT22;13961;51.178;4.448;2022-07-23T10:14:29;26.50;95.00
25949;DHT22;13961;51.178;4.448;2022-07-23T10:16:57;26.60;94.20
25949;DHT22;13961;51.178;4.448;2022-07-23T10:19:23;26.30;95.80
25949;DHT22;13961;51.178;4.448;2022-07-23T10:21:52;26.40;95.20
25949;DHT22;13961;51.178;4.448;2022-07-23T10:35:18;26.30;95.20
25949;DHT22;13961;51.178;4.448;2022-07-23T10:37:56;26.40;95.60
25949;DHT22;13961;51.178;4.448;2022-07-23T10:40:25;26.30;94.70
25949;DHT22;13961;51.178;4.448;2022-07-23T10:42:52;26.40;94.70
25949;DHT22;13961;51.178;4.448;2022-07-23T10:45:36;26.30;94.40
25949;DHT22;13961;51.178;4.448;2022-07-23T10:48:16;26.20;94.70
25949;DHT22;13961;51.178;4.448;2022-07-23T10:50:43;26.50;94.10
25949;DHT22;13961;51.178;4.448;2022-07-23T10:53:14;26.30;94.40
25949;DHT22;13961;51.178;4.448;2022-07-23T10:58:18;26.10;94.40
25949;DHT22;13961;51.178;4.448;2022-07-23T11:00:44;25.80;94.10
25949;DHT22;13961;51.178;4.448;2022-07-23T11:03:42;25.80;94.80
25949;DHT22;13961;51.178;4.448;2022-07-23T11:06:21;25.80;94.70
25949;DHT22;13961;51.178;4.448;2022-07-23T11:08:46;25.80;93.60
25949;DHT22;13961;51.178;4.448;2022-07-23T11:11:12;26.00;93.70
25949;DHT22;13961;51.178;4.448;2022-07-23T11:32:18;26.00;91.90
25949;DHT22;13961;51.178;4.448;2022-07-23T11:34:47;26.10;91.70
25949;DHT22;13961;51.178;4.448;2022-07-23T11:37:33;26.30;92.00
25949;DHT22;13961;51.178;4.448;2022-07-23T11:40:10;26.50;92.00
25949;DHT22;13961;51.178;4.448;2022-07-23T11:42:54;26.70;93.10
25949;DHT22;13961;51.178;4.448;2022-07-23T11:45:20;27.00;91.80
25949;DHT22;13961;51.178;4.448;2022-07-23T11:47:46;26.90;92.10
25949;DHT22;13961;51.178;4.448;2022-07-23T11:50:12;27.00;91.70
25949;DHT22;13961;51.178;4.448;2022-07-23T11:52:39;27.10;91.50
25949;DHT22;13961;51.178;4.448;2022-07-23T11:55:08;27.20;92.50
25949;DHT22;13961;51.178;4.448;2022-07-23T11:57:36;27.20;91.20
25949;DHT22;13961;51.178;4.448;2022-07-23T12:00:14;27.20;91.30
25949;DHT22;13961;51.178;4.448;2022-07-23T12:02:43;27.30;91.40
25949;DHT22;13961;51.178;4.448;2022-07-23T12:05:19;27.50;91.50
25949;DHT22;13961;51.178;4.448;2022-07-23T12:07:45;27.70;90.90
25949;DHT22;13961;51.178;4.448;2022-07-23T12:10:20;27.50;91.20
25949;DHT22;13961;51.178;4.448;2022-07-23T12:12:57;27.40;91.40
25949;DHT22;13961;51.178;4.448;2022-07-23T12:15:35;27.40;91.20
25949;DHT22;13961;51.178;4.448;2022-07-23T12:18:04;26.90;91.70
25949;DHT22;13961;51.178;4.448;2022-07-23T12:20:33;26.80;91.80
25949;DHT22;13961;51.178;4.448;2022-07-23T12:23:01;27.00;92.30
25949;DHT22;13961;51.178;4.448;2022-07-23T12:25:30;26.90;92.10
25949;DHT22;13961;51.178;4.448;2022-07-23T12:28:11;27.20;91.70
25949;DHT22;13961;51.178;4.448;2022-07-23T12:33:21;27.00;92.10
25949;DHT22;13961;51.178;4.448;2022-07-23T12:35:48;27.30;91.00
25949;DHT22;13961;51.178;4.448;2022-07-23T12:38:19;27.30;90.90
25949;DHT22;13961;51.178;4.448;2022-07-23T12:43:24;27.90;90.30
25949;DHT22;13961;51.178;4.448;2022-07-23T12:46:08;27.90;88.30
25949;DHT22;13961;51.178;4.448;2022-07-23T12:48:49;27.80;90.50
25949;DHT22;13961;51.178;4.448;2022-07-23T12:51:17;28.00;91.30
25949;DHT22;13961;51.178;4.448;2022-07-23T12:53:46;28.10;88.50
25949;DHT22;13961;51.178;4.448;2022-07-23T12:56:18;27.90;90.30
25949;DHT22;13961;51.178;4.448;2022-07-23T13:01:33;27.70;90.60
25949;DHT22;13961;51.178;4.448;2022-07-23T13:04:00;27.90;90.10
25949;DHT22;13961;51.178;4.448;2022-07-23T13:06:32;27.80;90.10
25949;DHT22;13961;51.178;4.448;2022-07-23T13:08:58;27.60;90.70
25949;DHT22;13961;51.178;4.448;2022-07-23T13:11:24;27.90;90.50
25949;DHT22;13961;51.178;4.448;2022-07-23T13:13:50;28.30;91.90
25949;DHT22;13961;51.178;4.448;2022-07-23T13:16:16;28.70;89.70
25949;DHT22;13961;51.178;4.448;2022-07-23T13:18:42;28.40;89.70
25949;DHT22;13961;51.178;4.448;2022-07-23T13:21:07;28.40;89.60
25949;DHT22;13961;51.178;4.448;2022-07-23T13:23:33;28.10;89.70
25949;DHT22;13961;51.178;4.448;2022-07-23T13:25:59;28.20;92.80
25949;DHT22;13961;51.178;4.448;2022-07-23T13:28:25;28.50;91.60
25949;DHT22;13961;51.178;4.448;2022-07-23T13:30:51;28.60;89.80
25949;DHT22;13961;51.178;4.448;2022-07-23T13:33:19;28.80;90.50
25949;DHT22;13961;51.178;4.448;2022-07-23T13:35:45;29.10;90.90
25949;DHT22;13961;51.178;4.448;2022-07-23T13:38:11;29.00;90.00
25949;DHT22;13961;51.178;4.448;2022-07-23T13:40:38;29.10;89.00
25949;DHT22;13961;51.178;4.448;2022-07-23T13:43:06;28.60;88.30
25949;DHT22;13961;51.178;4.448;2022-07-23T13:45:32;28.80;90.20
25949;DHT22;13961;51.178;4.448;2022-07-23T13:47:58;29.00;88.70
25949;DHT22;13961;51.178;4.448;2022-07-23T13:50:24;27.80;90.00
25949;DHT22;13961;51.178;4.448;2022-07-23T13:52:50;27.90;90.10
25949;DHT22;13961;51.178;4.448;2022-07-23T13:55:16;27.80;89.50
25949;DHT22;13961;51.178;4.448;2022-07-23T13:57:41;27.80;90.60
25949;DHT22;13961;51.178;4.448;2022-07-23T14:00:08;28.00;90.00
25949;DHT22;13961;51.178;4.448;2022-07-23T14:02:36;28.30;90.50
25949;DHT22;13961;51.178;4.448;2022-07-23T14:05:04;28.30;89.70
25949;DHT22;13961;51.178;4.448;2022-07-23T14:07:30;28.90;88.70
25949;DHT22;13961;51.178;4.448;2022-07-23T14:09:55;29.40;88.20
25949;DHT22;13961;51.178;4.448;2022-07-23T14:12:21;29.70;87.60
25949;DHT22;13961;51.178;4.448;2022-07-23T14:14:47;29.70;86.90
25949;DHT22;13961;51.178;4.448;2022-07-23T14:17:13;29.70;87.60
25949;DHT22;13961;51.178;4.448;2022-07-23T14:19:38;29.30;89.40
25949;DHT22;13961;51.178;4.448;2022-07-23T14:22:04;29.30;90.00
25949;DHT22;13961;51.178;4.448;2022-07-23T14:24:30;29.20;88.40
25949;DHT22;13961;51.178;4.448;2022-07-23T14:26:55;29.30;88.70
25949;DHT22;13961;51.178;4.448;2022-07-23T14:29:21;29.00;90.40
25949;DHT22;13961;51.178;4.448;2022-07-23T14:31:47;28.50;90.10
25949;DHT22;13961;51.178;4.448;2022-07-23T14:34:13;28.60;90.30
25949;DHT22;13961;51.178;4.448;2022-07-23T14:36:39;28.60;91.00
25949;DHT22;13961;51.178;4.448;2022-07-23T14:39:05;28.50;90.50
25949;DHT22;13961;51.178;4.448;2022-07-23T14:41:30;28.60;90.40
25949;DHT22;13961;51.178;4.448;2022-07-23T14:43:56;28.60;91.00
25949;DHT22;13961;51.178;4.448;2022-07-23T14:46:22;28.60;90.30
25949;DHT22;13961;51.178;4.448;2022-07-23T14:48:48;28.80;90.90
25949;DHT22;13961;51.178;4.448;2022-07-23T14:51:13;29.10;91.70
25949;DHT22;13961;51.178;4.448;2022-07-23T14:53:39;29.20;90.50
25949;DHT22;13961;51.178;4.448;2022-07-23T14:56:05;29.20;90.20
25949;DHT22;13961;51.178;4.448;2022-07-23T14:58:30;29.10;90.40
25949;DHT22;13961;51.178;4.448;2022-07-23T15:00:56;29.00;90.20
25949;DHT22;13961;51.178;4.448;2022-07-23T15:03:21;29.00;91.10
25949;DHT22;13961;51.178;4.448;2022-07-23T15:05:47;29.20;90.00
25949;DHT22;13961;51.178;4.448;2022-07-23T15:08:13;29.00;90.80
25949;DHT22;13961;51.178;4.448;2022-07-23T15:10:38;29.00;91.10
25949;DHT22;13961;51.178;4.448;2022-07-23T15:13:04;29.20;90.60
25949;DHT22;13961;51.178;4.448;2022-07-23T15:15:30;29.30;90.20
25949;DHT22;13961;51.178;4.448;2022-07-23T15:17:55;29.30;89.30
25949;DHT22;13961;51.178;4.448;2022-07-23T15:20:21;29.30;90.10
25949;DHT22;13961;51.178;4.448;2022-07-23T15:22:47;29.60;91.00
25949;DHT22;13961;51.178;4.448;2022-07-23T15:25:13;29.40;90.80
25949;DHT22;13961;51.178;4.448;2022-07-23T15:27:39;29.10;90.60
25949;DHT22;13961;51.178;4.448;2022-07-23T15:30:05;29.20;91.00
25949;DHT22;13961;51.178;4.448;2022-07-23T15:32:31;29.50;90.50
25949;DHT22;13961;51.178;4.448;2022-07-23T15:34:56;29.10;90.90
25949;DHT22;13961;51.178;4.448;2022-07-23T15:37:23;29.40;90.40
25949;DHT22;13961;51.178;4.448;2022-07-23T15:39:49;29.30;90.40
25949;DHT22;13961;51.178;4.448;2022-07-23T15:42:14;29.40;90.30
25949;DHT22;13961;51.178;4.448;2022-07-23T15:44:41;29.00;90.60
25949;DHT22;13961;51.178;4.448;2022-07-23T15:47:11;29.00;90.80
25949;DHT22;13961;51.178;4.448;2022-07-23T15:49:37;29.20;91.50
25949;DHT22;13961;51.178;4.448;2022-07-23T15:52:03;28.70;91.10
25949;DHT22;13961;51.178;4.448;2022-07-23T15:54:28;28.50;91.90
25949;DHT22;13961;51.178;4.448;2022-07-23T15:56:54;28.40;91.60
25949;DHT22;13961;51.178;4.448;2022-07-23T15:59:20;28.60;91.00
25949;DHT22;13961;51.178;4.448;2022-07-23T16:01:45;28.80;91.50
25949;DHT22;13961;51.178;4.448;2022-07-23T16:04:11;28.90;91.00
25949;DHT22;13961;51.178;4.448;2022-07-23T16:06:37;28.60;90.90
25949;DHT22;13961;51.178;4.448;2022-07-23T16:09:03;28.10;90.90
25949;DHT22;13961;51.178;4.448;2022-07-23T16:11:29;28.20;92.50
25949;DHT22;13961;51.178;4.448;2022-07-23T16:13:55;28.50;91.10
25949;DHT22;13961;51.178;4.448;2022-07-23T16:16:21;28.80;90.30
25949;DHT22;13961;51.178;4.448;2022-07-23T16:18:47;29.00;90.90
25949;DHT22;13961;51.178;4.448;2022-07-23T16:21:16;28.90;90.80